METAR Data
IDs: Format: Raw Decoded Include TAF

Data at: 1215 UTC 23 Sep 2018

METAR for:KHWO (Hollywood/North Perr, FL, US)
Text:KHWO 231153Z 00000KT 10SM CLR 27/24 A2998 RMK AO2 SLP151 T02670244 10272 20250 53012
Temperature: 26.7°C ( 80°F)
Dewpoint: 24.4°C ( 76°F) [RH = 87%]
Pressure (altimeter):29.98 inches Hg (1015.3 mb) [Sea level pressure: 1015.1 mb]
Winds:calm
Visibility:10 or more sm (16+ km)
Ceiling:at least 12,000 feet AGL
Clouds:sky clear below 12,000 feet AGL